sensor_id;sensor_type;location;lat;lon;timestamp;pressure;altitude;pressure_sealevel;temperature;humidity
68107;BME280;54892;47.488;19.026;2023-03-03T00:00:18;100217.44;;;4.57;74.49
68107;BME280;54892;47.488;19.026;2023-03-03T00:03:23;100215.19;;;4.61;74.49
68107;BME280;54892;47.488;19.026;2023-03-03T00:06:27;100217.66;;;4.55;74.49
68107;BME280;54892;47.488;19.026;2023-03-03T00:09:31;100220.16;;;4.37;75.29
68107;BME280;54892;47.488;19.026;2023-03-03T00:12:34;100227.06;;;4.24;75.74
68107;BME280;54892;47.488;19.026;2023-03-03T00:15:47;100212.97;;;4.25;75.81
68107;BME280;54892;47.488;19.026;2023-03-03T00:18:52;100214.19;;;4.23;75.70
68107;BME280;54892;47.488;19.026;2023-03-03T00:21:56;100213.03;;;4.12;76.16
68107;BME280;54892;47.488;19.026;2023-03-03T00:25:00;100212.00;;;4.13;76.27
68107;BME280;54892;47.488;19.026;2023-03-03T00:28:24;100206.81;;;4.06;76.60
68107;BME280;54892;47.488;19.026;2023-03-03T00:31:29;100210.25;;;4.07;76.68
68107;BME280;54892;47.488;19.026;2023-03-03T00:34:35;100209.03;;;4.03;77.01
68107;BME280;54892;47.488;19.026;2023-03-03T00:37:39;100204.44;;;3.98;77.16
68107;BME280;54892;47.488;19.026;2023-03-03T00:40:43;100204.25;;;3.93;77.43
68107;BME280;54892;47.488;19.026;2023-03-03T00:43:46;100203.84;;;3.96;77.53
68107;BME280;54892;47.488;19.026;2023-03-03T00:46:49;100199.56;;;4.08;77.17
68107;BME280;54892;47.488;19.026;2023-03-03T00:49:58;100203.37;;;4.12;76.97
68107;BME280;54892;47.488;19.026;2023-03-03T00:53:18;100200.81;;;3.99;77.40
68107;BME280;54892;47.488;19.026;2023-03-03T00:56:22;100197.00;;;3.95;77.93
68107;BME280;54892;47.488;19.026;2023-03-03T00:59:25;100198.03;;;3.87;78.51
68107;BME280;54892;47.488;19.026;2023-03-03T01:02:29;100193.78;;;3.93;78.62
68107;BME280;54892;47.488;19.026;2023-03-03T01:05:33;100190.56;;;4.04;77.93
68107;BME280;54892;47.488;19.026;2023-03-03T01:08:36;100195.59;;;3.99;78.33
68107;BME280;54892;47.488;19.026;2023-03-03T01:11:39;100188.16;;;3.96;78.75
68107;BME280;54892;47.488;19.026;2023-03-03T01:14:42;100181.69;;;4.12;78.92
68107;BME280;54892;47.488;19.026;2023-03-03T01:17:46;100172.84;;;4.06;78.95
68107;BME280;54892;47.488;19.026;2023-03-03T01:20:51;100178.31;;;3.98;79.09
68107;BME280;54892;47.488;19.026;2023-03-03T01:23:54;100173.72;;;3.93;79.16
68107;BME280;54892;47.488;19.026;2023-03-03T01:26:57;100179.72;;;3.94;79.09
68107;BME280;54892;47.488;19.026;2023-03-03T01:30:00;100166.06;;;3.92;79.14
68107;BME280;54892;47.488;19.026;2023-03-03T01:33:03;100174.31;;;3.95;78.82
68107;BME280;54892;47.488;19.026;2023-03-03T01:36:08;100173.44;;;4.08;78.39
68107;BME280;54892;47.488;19.026;2023-03-03T01:39:11;100166.06;;;3.99;78.90
68107;BME280;54892;47.488;19.026;2023-03-03T01:42:14;100167.09;;;3.91;79.30
68107;BME280;54892;47.488;19.026;2023-03-03T01:45:19;100161.69;;;3.86;79.50
68107;BME280;54892;47.488;19.026;2023-03-03T01:48:24;100156.47;;;3.86;79.90
68107;BME280;54892;47.488;19.026;2023-03-03T01:51:31;100155.66;;;3.85;80.25
68107;BME280;54892;47.488;19.026;2023-03-03T01:54:37;100158.28;;;3.85;80.68
68107;BME280;54892;47.488;19.026;2023-03-03T01:57:43;100156.47;;;3.86;80.73
68107;BME280;54892;47.488;19.026;2023-03-03T02:00:49;100162.28;;;3.88;80.84
68107;BME280;54892;47.488;19.026;2023-03-03T02:03:53;100159.50;;;3.83;81.37
68107;BME280;54892;47.488;19.026;2023-03-03T02:06:58;100146.44;;;3.83;81.30
68107;BME280;54892;47.488;19.026;2023-03-03T02:10:04;100157.25;;;3.93;81.19
68107;BME280;54892;47.488;19.026;2023-03-03T02:13:07;100162.28;;;3.94;81.17
68107;BME280;54892;47.488;19.026;2023-03-03T02:16:10;100155.25;;;3.88;81.10
68107;BME280;54892;47.488;19.026;2023-03-03T02:19:16;100159.69;;;3.88;81.33
68107;BME280;54892;47.488;19.026;2023-03-03T02:22:22;100157.47;;;3.85;81.39
68107;BME280;54892;47.488;19.026;2023-03-03T02:25:29;100157.47;;;3.85;81.41
68107;BME280;54892;47.488;19.026;2023-03-03T02:28:38;100148.44;;;3.80;81.68
68107;BME280;54892;47.488;19.026;2023-03-03T02:31:41;100158.87;;;3.87;81.67
68107;BME280;54892;47.488;19.026;2023-03-03T02:34:46;100153.47;;;3.89;81.65
68107;BME280;54892;47.488;19.026;2023-03-03T02:37:49;100148.41;;;3.87;81.59
68107;BME280;54892;47.488;19.026;2023-03-03T02:40:57;100151.84;;;3.88;81.63
68107;BME280;54892;47.488;19.026;2023-03-03T02:44:04;100145.63;;;3.89;81.62
68107;BME280;54892;47.488;19.026;2023-03-03T02:47:07;100148.41;;;3.87;81.74
68107;BME280;54892;47.488;19.026;2023-03-03T02:50:11;100142.41;;;3.87;81.81
68107;BME280;54892;47.488;19.026;2023-03-03T02:53:14;100144.81;;;3.88;81.84
68107;BME280;54892;47.488;19.026;2023-03-03T02:56:17;100133.75;;;3.86;82.13
68107;BME280;54892;47.488;19.026;2023-03-03T02:59:22;100131.94;;;3.93;82.07
68107;BME280;54892;47.488;19.026;2023-03-03T03:02:25;100132.50;;;4.02;81.85
68107;BME280;54892;47.488;19.026;2023-03-03T03:05:28;100121.06;;;4.03;81.73
68107;BME280;54892;47.488;19.026;2023-03-03T03:08:31;100128.44;;;4.06;81.68
68107;BME280;54892;47.488;19.026;2023-03-03T03:11:34;100121.41;;;4.14;81.53
68107;BME280;54892;47.488;19.026;2023-03-03T03:14:39;100118.78;;;4.14;81.56
68107;BME280;54892;47.488;19.026;2023-03-03T03:17:43;100126.59;;;4.20;81.48
68107;BME280;54892;47.488;19.026;2023-03-03T03:20:46;100114.50;;;4.26;81.16
68107;BME280;54892;47.488;19.026;2023-03-03T03:23:49;100113.28;;;4.22;81.35
68107;BME280;54892;47.488;19.026;2023-03-03T03:26:52;100118.47;;;4.29;81.38
68107;BME280;54892;47.488;19.026;2023-03-03T03:29:56;100112.06;;;4.31;81.26
68107;BME280;54892;47.488;19.026;2023-03-03T03:32:59;100111.09;;;4.25;81.51
68107;BME280;54892;47.488;19.026;2023-03-03T03:36:03;100106.22;;;4.29;81.59
68107;BME280;54892;47.488;19.026;2023-03-03T03:39:06;100110.12;;;4.45;80.75
68107;BME280;54892;47.488;19.026;2023-03-03T03:42:09;100102.34;;;4.38;81.21
68107;BME280;54892;47.488;19.026;2023-03-03T03:45:14;100107.75;;;4.44;81.27
68107;BME280;54892;47.488;19.026;2023-03-03T03:48:18;100107.47;;;4.52;80.80
68107;BME280;54892;47.488;19.026;2023-03-03T03:51:21;100101.16;;;4.41;81.10
68107;BME280;54892;47.488;19.026;2023-03-03T03:54:25;100097.87;;;4.46;81.16
68107;BME280;54892;47.488;19.026;2023-03-03T03:57:28;100092.28;;;4.42;81.25
68107;BME280;54892;47.488;19.026;2023-03-03T04:00:33;100081.97;;;4.47;81.05
68107;BME280;54892;47.488;19.026;2023-03-03T04:03:36;100086.56;;;4.52;80.73
68107;BME280;54892;47.488;19.026;2023-03-03T04:06:39;100091.28;;;4.43;80.97
68107;BME280;54892;47.488;19.026;2023-03-03T04:09:43;100088.22;;;4.46;80.82
68107;BME280;54892;47.488;19.026;2023-03-03T04:12:46;100089.47;;;4.44;81.05
68107;BME280;54892;47.488;19.026;2023-03-03T04:15:50;100094.69;;;4.44;81.16
68107;BME280;54892;47.488;19.026;2023-03-03T04:18:53;100095.88;;;4.48;81.01
68107;BME280;54892;47.488;19.026;2023-03-03T04:21:57;100088.50;;;4.38;81.34
68107;BME280;54892;47.488;19.026;2023-03-03T04:25:00;100088.28;;;4.39;81.59
68107;BME280;54892;47.488;19.026;2023-03-03T04:28:05;100089.00;;;4.53;81.29
68107;BME280;54892;47.488;19.026;2023-03-03T04:31:10;100079.31;;;4.54;81.29
68107;BME280;54892;47.488;19.026;2023-03-03T04:34:14;100085.13;;;4.56;81.23
68107;BME280;54892;47.488;19.026;2023-03-03T04:37:17;100088.88;;;4.67;81.03
68107;BME280;54892;47.488;19.026;2023-03-03T04:40:20;100077.28;;;4.81;80.45
68107;BME280;54892;47.488;19.026;2023-03-03T04:43:23;100078.59;;;4.72;80.75
68107;BME280;54892;47.488;19.026;2023-03-03T04:46:27;100078.38;;;4.73;80.65
68107;BME280;54892;47.488;19.026;2023-03-03T04:49:31;100087.66;;;4.69;80.77
68107;BME280;54892;47.488;19.026;2023-03-03T04:52:34;100081.03;;;4.67;80.72
68107;BME280;54892;47.488;19.026;2023-03-03T04:55:37;100085.84;;;4.70;80.58
68107;BME280;54892;47.488;19.026;2023-03-03T04:58:40;100077.78;;;4.71;80.65
68107;BME280;54892;47.488;19.026;2023-03-03T05:01:45;100076.75;;;4.72;80.66
68107;BME280;54892;47.488;19.026;2023-03-03T05:04:49;100077.19;;;4.69;80.74
68107;BME280;54892;47.488;19.026;2023-03-03T05:07:53;100086.62;;;4.70;80.54
68107;BME280;54892;47.488;19.026;2023-03-03T05:10:56;100086.00;;;4.75;79.98
68107;BME280;54892;47.488;19.026;2023-03-03T05:14:00;100086.28;;;4.67;79.44
68107;BME280;54892;47.488;19.026;2023-03-03T05:17:05;100086.75;;;4.82;77.62
68107;BME280;54892;47.488;19.026;2023-03-03T05:20:09;100088.28;;;4.65;77.64
68107;BME280;54892;47.488;19.026;2023-03-03T05:23:12;100090.16;;;4.57;77.82
68107;BME280;54892;47.488;19.026;2023-03-03T05:26:15;100086.97;;;4.55;78.00
68107;BME280;54892;47.488;19.026;2023-03-03T05:29:19;100090.56;;;4.29;79.33
68107;BME280;54892;47.488;19.026;2023-03-03T05:32:23;100087.72;;;4.31;79.53
68107;BME280;54892;47.488;19.026;2023-03-03T05:35:26;100090.84;;;4.46;78.06
68107;BME280;54892;47.488;19.026;2023-03-03T05:38:29;100090.56;;;4.29;78.24
68107;BME280;54892;47.488;19.026;2023-03-03T05:41:33;100096.00;;;4.28;78.75
68107;BME280;54892;47.488;19.026;2023-03-03T05:44:37;100102.09;;;4.15;79.38
68107;BME280;54892;47.488;19.026;2023-03-03T05:47:42;100096.88;;;4.15;79.47
68107;BME280;54892;47.488;19.026;2023-03-03T05:50:45;100095.69;;;4.10;79.57
68107;BME280;54892;47.488;19.026;2023-03-03T05:53:48;100106.53;;;4.07;79.71
68107;BME280;54892;47.488;19.026;2023-03-03T05:56:52;100098.09;;;4.12;79.41
68107;BME280;54892;47.488;19.026;2023-03-03T05:59:55;100105.31;;;4.17;79.46
68107;BME280;54892;47.488;19.026;2023-03-03T06:03:00;100098.84;;;4.19;79.35
68107;BME280;54892;47.488;19.026;2023-03-03T06:06:04;100107.28;;;4.21;79.78
68107;BME280;54892;47.488;19.026;2023-03-03T06:09:07;100101.19;;;4.34;79.47
68107;BME280;54892;47.488;19.026;2023-03-03T06:12:11;100106.75;;;4.45;78.99
68107;BME280;54892;47.488;19.026;2023-03-03T06:15:13;100105.69;;;4.52;78.27
68107;BME280;54892;47.488;19.026;2023-03-03T06:18:18;100106.47;;;4.53;78.92
68107;BME280;54892;47.488;19.026;2023-03-03T06:21:21;100101.37;;;4.65;78.29
68107;BME280;54892;47.488;19.026;2023-03-03T06:24:24;100111.81;;;4.65;77.73
68107;BME280;54892;47.488;19.026;2023-03-03T06:27:31;100108.13;;;4.72;77.41
68107;BME280;54892;47.488;19.026;2023-03-03T06:30:34;100116.41;;;4.69;77.47
68107;BME280;54892;47.488;19.026;2023-03-03T06:33:39;100111.78;;;4.71;77.52
68107;BME280;54892;47.488;19.026;2023-03-03T06:36:43;100115.41;;;4.70;77.76
68107;BME280;54892;47.488;19.026;2023-03-03T06:39:46;100112.00;;;4.70;78.08
68107;BME280;54892;47.488;19.026;2023-03-03T06:42:52;100120.16;;;4.80;78.01
68107;BME280;54892;47.488;19.026;2023-03-03T06:45:55;100115.50;;;4.82;78.20
68107;BME280;54892;47.488;19.026;2023-03-03T06:48:59;100113.00;;;4.94;78.05
68107;BME280;54892;47.488;19.026;2023-03-03T06:52:04;100126.06;;;5.20;77.47
68107;BME280;54892;47.488;19.026;2023-03-03T06:55:21;100131.31;;;5.38;77.00
68107;BME280;54892;47.488;19.026;2023-03-03T06:58:25;100133.13;;;5.38;77.46
68107;BME280;54892;47.488;19.026;2023-03-03T07:01:29;100142.81;;;5.37;78.02
68107;BME280;54892;47.488;19.026;2023-03-03T07:04:35;100132.84;;;5.46;78.02
68107;BME280;54892;47.488;19.026;2023-03-03T07:07:40;100133.06;;;5.63;76.95
68107;BME280;54892;47.488;19.026;2023-03-03T07:10:44;100142.16;;;5.79;76.04
68107;BME280;54892;47.488;19.026;2023-03-03T07:13:48;100147.38;;;5.79;76.65
68107;BME280;54892;47.488;19.026;2023-03-03T07:16:52;100144.19;;;5.77;76.67
68107;BME280;54892;47.488;19.026;2023-03-03T07:19:59;100153.28;;;5.74;76.62
68107;BME280;54892;47.488;19.026;2023-03-03T07:23:07;100151.31;;;5.70;77.09
68107;BME280;54892;47.488;19.026;2023-03-03T07:26:18;100151.47;;;5.75;76.80
68107;BME280;54892;47.488;19.026;2023-03-03T07:29:24;100152.50;;;5.74;76.88
68107;BME280;54892;47.488;19.026;2023-03-03T07:32:30;100163.91;;;5.79;76.80
68107;BME280;54892;47.488;19.026;2023-03-03T07:35:39;100167.56;;;5.78;76.84
68107;BME280;54892;47.488;19.026;2023-03-03T07:38:44;100169.84;;;5.87;77.01
68107;BME280;54892;47.488;19.026;2023-03-03T07:41:53;100167.09;;;6.00;76.98
68107;BME280;54892;47.488;19.026;2023-03-03T07:44:56;100168.06;;;6.06;76.68
68107;BME280;54892;47.488;19.026;2023-03-03T07:48:01;100162.59;;;6.07;77.11
68107;BME280;54892;47.488;19.026;2023-03-03T07:51:14;100163.09;;;6.16;77.35
68107;BME280;54892;47.488;19.026;2023-03-03T07:54:23;100161.22;;;6.35;77.28
68107;BME280;54892;47.488;19.026;2023-03-03T07:57:33;100155.53;;;6.38;77.21
68107;BME280;54892;47.488;19.026;2023-03-03T08:04:18;100159.03;;;6.63;76.37
68107;BME280;54892;47.488;19.026;2023-03-03T08:07:23;100151.75;;;6.65;76.71
68107;BME280;54892;47.488;19.026;2023-03-03T08:10:33;100155.75;;;6.79;76.53
68107;BME280;54892;47.488;19.026;2023-03-03T08:13:37;100159.53;;;6.95;75.53
68107;BME280;54892;47.488;19.026;2023-03-03T08:16:41;100152.81;;;6.99;75.46
68107;BME280;54892;47.488;19.026;2023-03-03T08:19:45;100152.72;;;7.06;75.32
68107;BME280;54892;47.488;19.026;2023-03-03T08:22:49;100151.81;;;7.12;75.16
68107;BME280;54892;47.488;19.026;2023-03-03T08:25:53;100149.19;;;7.12;75.25
68107;BME280;54892;47.488;19.026;2023-03-03T08:28:55;100153.88;;;7.22;74.96
68107;BME280;54892;47.488;19.026;2023-03-03T08:31:59;100153.75;;;7.29;74.40
68107;BME280;54892;47.488;19.026;2023-03-03T08:35:03;100156.34;;;7.41;74.43
68107;BME280;54892;47.488;19.026;2023-03-03T08:38:07;100148.84;;;7.44;74.16
68107;BME280;54892;47.488;19.026;2023-03-03T08:41:11;100156.34;;;7.53;74.24
68107;BME280;54892;47.488;19.026;2023-03-03T08:44:15;100158.84;;;7.59;73.80
68107;BME280;54892;47.488;19.026;2023-03-03T08:47:18;100152.87;;;7.76;72.92
68107;BME280;54892;47.488;19.026;2023-03-03T08:50:21;100155.84;;;7.80;72.99
68107;BME280;54892;47.488;19.026;2023-03-03T08:53:26;100150.94;;;7.83;72.99
68107;BME280;54892;47.488;19.026;2023-03-03T08:56:30;100150.41;;;7.98;72.95
68107;BME280;54892;47.488;19.026;2023-03-03T08:59:33;100150.00;;;8.18;72.05
68107;BME280;54892;47.488;19.026;2023-03-03T09:02:40;100150.66;;;8.26;71.72
68107;BME280;54892;47.488;19.026;2023-03-03T09:05:42;100148.34;;;8.29;71.28
68107;BME280;54892;47.488;19.026;2023-03-03T09:08:48;100156.25;;;8.29;71.62
68107;BME280;54892;47.488;19.026;2023-03-03T09:11:52;100152.78;;;8.41;71.97
68107;BME280;54892;47.488;19.026;2023-03-03T09:14:55;100158.50;;;8.66;71.04
68107;BME280;54892;47.488;19.026;2023-03-03T09:17:58;100144.88;;;8.70;70.67
68107;BME280;54892;47.488;19.026;2023-03-03T09:21:05;100143.41;;;8.79;70.62
68107;BME280;54892;47.488;19.026;2023-03-03T09:24:21;100144.69;;;8.93;70.17
68107;BME280;54892;47.488;19.026;2023-03-03T09:27:27;100141.56;;;9.13;68.06
68107;BME280;54892;47.488;19.026;2023-03-03T09:30:34;100147.84;;;9.29;67.37
68107;BME280;54892;47.488;19.026;2023-03-03T09:33:40;100148.50;;;9.20;66.43
68107;BME280;54892;47.488;19.026;2023-03-03T09:36:44;100149.75;;;9.34;66.51
68107;BME280;54892;47.488;19.026;2023-03-03T09:39:49;100149.03;;;9.39;65.95
68107;BME280;54892;47.488;19.026;2023-03-03T09:42:55;100147.50;;;9.43;64.75
68107;BME280;54892;47.488;19.026;2023-03-03T09:46:05;100148.06;;;9.45;64.97
68107;BME280;54892;47.488;19.026;2023-03-03T09:49:17;100151.25;;;9.47;63.88
68107;BME280;54892;47.488;19.026;2023-03-03T09:52:28;100151.19;;;9.42;65.13
68107;BME280;54892;47.488;19.026;2023-03-03T09:55:38;100149.53;;;9.58;63.57
68107;BME280;54892;47.488;19.026;2023-03-03T09:58:46;100143.09;;;9.49;63.91
68107;BME280;54892;47.488;19.026;2023-03-03T10:01:58;100147.81;;;9.47;63.52
68107;BME280;54892;47.488;19.026;2023-03-03T10:05:20;100143.41;;;9.52;64.36
68107;BME280;54892;47.488;19.026;2023-03-03T10:08:31;100144.41;;;9.68;64.71
68107;BME280;54892;47.488;19.026;2023-03-03T10:11:43;100142.78;;;9.89;63.66
68107;BME280;54892;47.488;19.026;2023-03-03T10:14:55;100141.56;;;9.97;63.16
68107;BME280;54892;47.488;19.026;2023-03-03T10:18:06;100137.41;;;10.01;62.92
68107;BME280;54892;47.488;19.026;2023-03-03T10:21:15;100139.19;;;9.96;63.17
68107;BME280;54892;47.488;19.026;2023-03-03T10:24:22;100131.28;;;9.96;63.13
68107;BME280;54892;47.488;19.026;2023-03-03T10:27:35;100124.91;;;9.92;63.27
68107;BME280;54892;47.488;19.026;2023-03-03T10:30:43;100121.66;;;10.12;62.76
68107;BME280;54892;47.488;19.026;2023-03-03T10:34:06;100122.56;;;10.23;62.14
68107;BME280;54892;47.488;19.026;2023-03-03T10:37:18;100121.25;;;10.25;61.52
68107;BME280;54892;47.488;19.026;2023-03-03T10:40:25;100115.63;;;10.16;62.10
68107;BME280;54892;47.488;19.026;2023-03-03T10:43:49;100110.56;;;10.10;62.06
68107;BME280;54892;47.488;19.026;2023-03-03T10:47:01;100111.81;;;10.02;62.70
68107;BME280;54892;47.488;19.026;2023-03-03T10:50:13;100113.19;;;10.10;62.01
68107;BME280;54892;47.488;19.026;2023-03-03T10:53:20;100104.09;;;10.23;61.63
68107;BME280;54892;47.488;19.026;2023-03-03T10:56:27;100104.84;;;10.45;61.08
68107;BME280;54892;47.488;19.026;2023-03-03T10:59:48;100092.56;;;10.61;60.82
68107;BME280;54892;47.488;19.026;2023-03-03T11:03:01;100086.50;;;10.61;61.52
68107;BME280;54892;47.488;19.026;2023-03-03T11:06:12;100093.44;;;10.72;61.28
68107;BME280;54892;47.488;19.026;2023-03-03T11:09:23;100084.31;;;10.90;60.05
68107;BME280;54892;47.488;19.026;2023-03-03T11:12:32;100079.09;;;11.01;59.65
68107;BME280;54892;47.488;19.026;2023-03-03T11:15:46;100084.37;;;11.01;60.14
68107;BME280;54892;47.488;19.026;2023-03-03T11:22:16;100073.34;;;11.14;59.37
68107;BME280;54892;47.488;19.026;2023-03-03T11:25:25;100065.69;;;11.12;59.34
68107;BME280;54892;47.488;19.026;2023-03-03T11:28:31;100065.22;;;11.21;58.63
68107;BME280;54892;47.488;19.026;2023-03-03T11:31:45;100064.47;;;11.36;58.61
68107;BME280;54892;47.488;19.026;2023-03-03T11:34:53;100058.69;;;11.49;57.43
68107;BME280;54892;47.488;19.026;2023-03-03T11:38:01;100041.81;;;11.55;56.93
68107;BME280;54892;47.488;19.026;2023-03-03T11:41:10;100038.88;;;11.47;57.84
68107;BME280;54892;47.488;19.026;2023-03-03T11:44:19;100037.28;;;11.46;57.73
68107;BME280;54892;47.488;19.026;2023-03-03T11:47:26;100035.94;;;11.38;58.67
68107;BME280;54892;47.488;19.026;2023-03-03T11:50:34;100035.16;;;11.42;57.86
68107;BME280;54892;47.488;19.026;2023-03-03T11:53:44;100030.44;;;11.55;57.57
68107;BME280;54892;47.488;19.026;2023-03-03T11:56:52;100023.34;;;11.81;55.43
68107;BME280;54892;47.488;19.026;2023-03-03T12:00:00;100027.63;;;12.08;54.53
68107;BME280;54892;47.488;19.026;2023-03-03T12:03:13;100019.44;;;12.15;54.94
68107;BME280;54892;47.488;19.026;2023-03-03T12:06:21;100020.50;;;12.24;54.85
68107;BME280;54892;47.488;19.026;2023-03-03T12:09:30;100016.53;;;12.32;54.51
68107;BME280;54892;47.488;19.026;2023-03-03T12:12:39;100012.56;;;12.14;55.42
68107;BME280;54892;47.488;19.026;2023-03-03T12:15:44;100008.84;;;12.20;55.03
68107;BME280;54892;47.488;19.026;2023-03-03T12:18:54;100005.16;;;12.42;54.56
68107;BME280;54892;47.488;19.026;2023-03-03T12:22:05;99997.16;;;12.57;52.83
68107;BME280;54892;47.488;19.026;2023-03-03T12:25:17;100001.38;;;12.63;52.91
68107;BME280;54892;47.488;19.026;2023-03-03T12:28:21;100007.72;;;12.62;52.12
68107;BME280;54892;47.488;19.026;2023-03-03T12:31:29;100001.66;;;12.57;52.17
68107;BME280;54892;47.488;19.026;2023-03-03T12:34:40;99990.03;;;12.53;52.76
68107;BME280;54892;47.488;19.026;2023-03-03T12:37:46;99986.59;;;12.47;52.67
68107;BME280;54892;47.488;19.026;2023-03-03T12:40:56;99998.78;;;12.38;52.79
68107;BME280;54892;47.488;19.026;2023-03-03T12:44:03;100001.44;;;11.96;51.19
68107;BME280;54892;47.488;19.026;2023-03-03T12:47:10;100003.03;;;11.97;51.14
68107;BME280;54892;47.488;19.026;2023-03-03T12:50:26;100004.31;;;11.69;52.00
68107;BME280;54892;47.488;19.026;2023-03-03T12:53:36;100003.50;;;11.63;52.72
68107;BME280;54892;47.488;19.026;2023-03-03T12:56:47;100005.34;;;11.63;52.92
68107;BME280;54892;47.488;19.026;2023-03-03T12:59:55;100012.75;;;11.55;52.88
68107;BME280;54892;47.488;19.026;2023-03-03T13:03:08;100006.09;;;11.42;52.77
68107;BME280;54892;47.488;19.026;2023-03-03T13:06:16;100006.59;;;11.39;52.76
68107;BME280;54892;47.488;19.026;2023-03-03T13:09:24;100004.53;;;11.47;53.11
68107;BME280;54892;47.488;19.026;2023-03-03T13:12:32;99996.62;;;11.52;53.22
68107;BME280;54892;47.488;19.026;2023-03-03T13:15:38;100004.03;;;11.60;52.23
68107;BME280;54892;47.488;19.026;2023-03-03T13:18:56;99999.81;;;11.64;51.60
68107;BME280;54892;47.488;19.026;2023-03-03T13:22:04;99998.22;;;11.68;50.10
68107;BME280;54892;47.488;19.026;2023-03-03T13:25:18;99978.66;;;11.64;49.17
68107;BME280;54892;47.488;19.026;2023-03-03T13:28:27;99991.09;;;11.74;49.82
68107;BME280;54892;47.488;19.026;2023-03-03T13:31:34;99983.94;;;11.75;49.33
68107;BME280;54892;47.488;19.026;2023-03-03T13:34:40;99972.59;;;11.74;49.14
68107;BME280;54892;47.488;19.026;2023-03-03T13:37:48;99972.84;;;11.72;49.56
68107;BME280;54892;47.488;19.026;2023-03-03T13:40:56;99971.25;;;11.77;49.26
68107;BME280;54892;47.488;19.026;2023-03-03T13:44:03;99973.91;;;11.77;49.83
68107;BME280;54892;47.488;19.026;2023-03-03T13:47:12;99971.78;;;11.73;48.51
68107;BME280;54892;47.488;19.026;2023-03-03T13:50:18;99971.53;;;11.70;47.93
68107;BME280;54892;47.488;19.026;2023-03-03T13:53:30;99966.50;;;11.73;48.66
68107;BME280;54892;47.488;19.026;2023-03-03T13:56:42;99961.72;;;11.70;47.38
68107;BME280;54892;47.488;19.026;2023-03-03T13:59:52;99963.03;;;11.63;46.59
68107;BME280;54892;47.488;19.026;2023-03-03T14:06:19;99954.84;;;11.59;45.74
68107;BME280;54892;47.488;19.026;2023-03-03T14:09:31;99962.00;;;11.58;46.62
68107;BME280;54892;47.488;19.026;2023-03-03T14:12:41;99954.06;;;11.58;47.03
68107;BME280;54892;47.488;19.026;2023-03-03T14:15:49;99951.16;;;11.65;47.34
68107;BME280;54892;47.488;19.026;2023-03-03T14:18:54;99957.22;;;11.66;47.94
68107;BME280;54892;47.488;19.026;2023-03-03T14:22:03;99953.53;;;11.62;47.63
68107;BME280;54892;47.488;19.026;2023-03-03T14:25:09;99948.50;;;11.60;48.06
68107;BME280;54892;47.488;19.026;2023-03-03T14:28:13;99944.28;;;11.59;48.68
68107;BME280;54892;47.488;19.026;2023-03-03T14:31:19;99935.81;;;11.62;48.84
68107;BME280;54892;47.488;19.026;2023-03-03T14:34:34;99945.31;;;11.58;49.06
68107;BME280;54892;47.488;19.026;2023-03-03T14:37:41;99939.53;;;11.61;49.55
68107;BME280;54892;47.488;19.026;2023-03-03T14:40:46;99939.53;;;11.61;49.41
68107;BME280;54892;47.488;19.026;2023-03-03T14:43:56;99923.66;;;11.61;49.63
68107;BME280;54892;47.488;19.026;2023-03-03T14:47:00;99931.59;;;11.66;49.04
68107;BME280;54892;47.488;19.026;2023-03-03T14:50:25;99932.13;;;11.63;49.11
68107;BME280;54892;47.488;19.026;2023-03-03T14:53:30;99930.00;;;11.55;48.81
68107;BME280;54892;47.488;19.026;2023-03-03T14:56:36;99936.34;;;11.49;48.89
68107;BME280;54892;47.488;19.026;2023-03-03T14:59:40;99941.06;;;11.41;48.93
68107;BME280;54892;47.488;19.026;2023-03-03T15:03:01;99932.06;;;11.37;49.01
68107;BME280;54892;47.488;19.026;2023-03-03T15:06:09;99940.53;;;11.34;49.05
68107;BME280;54892;47.488;19.026;2023-03-03T15:09:26;99934.97;;;11.31;49.41
68107;BME280;54892;47.488;19.026;2023-03-03T15:12:34;99937.63;;;11.25;49.35
68107;BME280;54892;47.488;19.026;2023-03-03T15:15:41;99935.75;;;11.21;49.32
68107;BME280;54892;47.488;19.026;2023-03-03T15:22:20;99950.00;;;11.15;49.85
68107;BME280;54892;47.488;19.026;2023-03-03T15:25:28;99951.06;;;11.14;50.08
68107;BME280;54892;47.488;19.026;2023-03-03T15:28:49;99948.13;;;11.05;49.97
68107;BME280;54892;47.488;19.026;2023-03-03T15:31:57;99945.44;;;11.00;50.45
68107;BME280;54892;47.488;19.026;2023-03-03T15:35:04;99959.25;;;11.12;50.74
68107;BME280;54892;47.488;19.026;2023-03-03T15:38:16;99952.59;;;10.99;50.77
68107;BME280;54892;47.488;19.026;2023-03-03T15:41:24;99945.44;;;10.94;50.82
68107;BME280;54892;47.488;19.026;2023-03-03T15:44:31;99956.25;;;10.93;50.97
68107;BME280;54892;47.488;19.026;2023-03-03T15:47:39;99955.19;;;10.89;50.46
68107;BME280;54892;47.488;19.026;2023-03-03T15:50:46;99954.13;;;10.85;50.33
68107;BME280;54892;47.488;19.026;2023-03-03T15:53:58;99956.97;;;10.73;50.63
68107;BME280;54892;47.488;19.026;2023-03-03T15:57:09;99953.00;;;10.70;50.75
68107;BME280;54892;47.488;19.026;2023-03-03T16:00:24;99955.31;;;10.61;50.46
68107;BME280;54892;47.488;19.026;2023-03-03T16:03:35;99956.13;;;10.62;50.47
68107;BME280;54892;47.488;19.026;2023-03-03T16:06:43;99961.56;;;10.45;50.78
68107;BME280;54892;47.488;19.026;2023-03-03T16:09:50;99970.72;;;10.37;50.71
68107;BME280;54892;47.488;19.026;2023-03-03T16:13:13;99976.00;;;10.37;50.79
68107;BME280;54892;47.488;19.026;2023-03-03T16:16:27;99973.81;;;10.29;50.73
68107;BME280;54892;47.488;19.026;2023-03-03T16:19:35;99972.13;;;10.12;51.03
68107;BME280;54892;47.488;19.026;2023-03-03T16:22:45;99981.84;;;10.06;51.38
68107;BME280;54892;47.488;19.026;2023-03-03T16:25:57;99983.16;;;10.04;51.51